sensor_id;sensor_type;location;lat;lon;timestamp;pressure;altitude;pressure_sealevel;temperature;humidity
33151;BME280;19508;42.578;23.416;2023-07-20T00:01:14;93440.81;;;20.70;83.07
33151;BME280;19508;42.578;23.416;2023-07-20T00:03:39;93457.41;;;20.47;83.43
33151;BME280;19508;42.578;23.416;2023-07-20T00:06:05;93449.03;;;20.52;83.08
33151;BME280;19508;42.578;23.416;2023-07-20T00:08:30;93457.56;;;20.60;82.51
33151;BME280;19508;42.578;23.416;2023-07-20T00:10:56;93444.84;;;20.38;79.37
33151;BME280;19508;42.578;23.416;2023-07-20T00:13:21;93446.59;;;20.42;76.91
33151;BME280;19508;42.578;23.416;2023-07-20T00:15:47;93445.50;;;20.61;75.50
33151;BME280;19508;42.578;23.416;2023-07-20T00:18:13;93430.69;;;20.62;77.67
33151;BME280;19508;42.578;23.416;2023-07-20T00:20:38;93440.81;;;20.70;79.39
33151;BME280;19508;42.578;23.416;2023-07-20T00:23:04;93431.00;;;20.60;80.10
33151;BME280;19508;42.578;23.416;2023-07-20T00:25:31;93433.25;;;20.49;80.62
33151;BME280;19508;42.578;23.416;2023-07-20T00:27:57;93421.19;;;20.50;80.04
33151;BME280;19508;42.578;23.416;2023-07-20T00:30:22;93422.16;;;20.37;81.21
33151;BME280;19508;42.578;23.416;2023-07-20T00:32:47;93426.66;;;20.33;81.83
33151;BME280;19508;42.578;23.416;2023-07-20T00:35:13;93407.72;;;20.28;80.73
33151;BME280;19508;42.578;23.416;2023-07-20T00:37:39;93404.19;;;20.19;79.81
33151;BME280;19508;42.578;23.416;2023-07-20T00:40:05;93410.44;;;20.37;78.30
33151;BME280;19508;42.578;23.416;2023-07-20T00:42:32;93397.41;;;20.51;76.98
33151;BME280;19508;42.578;23.416;2023-07-20T00:44:58;93397.91;;;20.44;76.49
33151;BME280;19508;42.578;23.416;2023-07-20T00:47:25;93388.38;;;20.50;76.42
33151;BME280;19508;42.578;23.416;2023-07-20T00:49:53;93395.94;;;20.62;77.08
33151;BME280;19508;42.578;23.416;2023-07-20T00:52:21;93385.63;;;20.59;77.41
33151;BME280;19508;42.578;23.416;2023-07-20T00:54:49;93380.47;;;20.66;77.33
33151;BME280;19508;42.578;23.416;2023-07-20T00:57:15;93382.66;;;20.81;76.59
33151;BME280;19508;42.578;23.416;2023-07-20T00:59:41;93390.75;;;20.69;76.24
33151;BME280;19508;42.578;23.416;2023-07-20T01:02:07;93376.34;;;20.51;77.08
33151;BME280;19508;42.578;23.416;2023-07-20T01:04:33;93385.97;;;20.49;77.71
33151;BME280;19508;42.578;23.416;2023-07-20T01:12:42;93385.97;;;20.32;79.69
33151;BME280;19508;42.578;23.416;2023-07-20T01:15:09;93393.22;;;20.36;78.67
33151;BME280;19508;42.578;23.416;2023-07-20T01:17:36;93392.22;;;20.41;78.27
33151;BME280;19508;42.578;23.416;2023-07-20T01:20:02;93383.22;;;20.40;77.20
33151;BME280;19508;42.578;23.416;2023-07-20T01:31:27;93388.34;;;20.68;73.13
33151;BME280;19508;42.578;23.416;2023-07-20T01:33:57;93400.25;;;20.72;73.90
33151;BME280;19508;42.578;23.416;2023-07-20T01:36:24;93384.78;;;20.67;74.49
33151;BME280;19508;42.578;23.416;2023-07-20T01:38:52;93379.97;;;20.73;75.28
33151;BME280;19508;42.578;23.416;2023-07-20T01:41:18;93383.47;;;20.82;75.33
33151;BME280;19508;42.578;23.416;2023-07-20T01:43:44;93396.56;;;20.42;76.54
33151;BME280;19508;42.578;23.416;2023-07-20T01:46:10;93386.31;;;20.47;77.76
33151;BME280;19508;42.578;23.416;2023-07-20T01:48:35;93388.69;;;20.40;77.26
33151;BME280;19508;42.578;23.416;2023-07-20T01:51:01;93387.44;;;20.46;76.60
33151;BME280;19508;42.578;23.416;2023-07-20T01:53:26;93386.44;;;20.42;76.75
33151;BME280;19508;42.578;23.416;2023-07-20T01:55:56;93385.50;;;20.38;77.39
33151;BME280;19508;42.578;23.416;2023-07-20T01:58:22;93388.69;;;20.40;77.95
33151;BME280;19508;42.578;23.416;2023-07-20T02:00:48;93397.09;;;20.35;78.49
33151;BME280;19508;42.578;23.416;2023-07-20T02:03:14;93393.56;;;20.35;78.62
33151;BME280;19508;42.578;23.416;2023-07-20T02:05:42;93391.31;;;20.28;78.85
33151;BME280;19508;42.578;23.416;2023-07-20T02:08:07;93391.13;;;20.24;78.95
33151;BME280;19508;42.578;23.416;2023-07-20T02:10:33;93373.00;;;20.20;78.73
33151;BME280;19508;42.578;23.416;2023-07-20T02:12:58;93375.22;;;20.26;78.31
33151;BME280;19508;42.578;23.416;2023-07-20T02:15:24;93372.66;;;20.13;78.77
33151;BME280;19508;42.578;23.416;2023-07-20T02:17:49;93376.38;;;19.99;79.47
33151;BME280;19508;42.578;23.416;2023-07-20T02:20:14;93379.28;;;20.03;79.17
33151;BME280;19508;42.578;23.416;2023-07-20T02:22:40;93378.28;;;19.99;79.55
33151;BME280;19508;42.578;23.416;2023-07-20T02:25:06;93377.34;;;20.04;80.12
33151;BME280;19508;42.578;23.416;2023-07-20T02:27:33;93375.75;;;19.94;79.98
33151;BME280;19508;42.578;23.416;2023-07-20T02:29:59;93364.81;;;19.94;79.83
33151;BME280;19508;42.578;23.416;2023-07-20T02:32:24;93367.56;;;19.85;79.76
33151;BME280;19508;42.578;23.416;2023-07-20T02:34:50;93369.31;;;19.81;79.88
33151;BME280;19508;42.578;23.416;2023-07-20T02:37:16;93372.69;;;19.78;80.18
33151;BME280;19508;42.578;23.416;2023-07-20T02:39:41;93366.91;;;19.71;80.57
33151;BME280;19508;42.578;23.416;2023-07-20T02:42:07;93371.09;;;19.77;80.51
33151;BME280;19508;42.578;23.416;2023-07-20T02:44:32;93361.13;;;19.72;80.83
33151;BME280;19508;42.578;23.416;2023-07-20T02:46:58;93370.72;;;19.53;81.88
33151;BME280;19508;42.578;23.416;2023-07-20T02:49:23;93369.63;;;19.62;81.58
33151;BME280;19508;42.578;23.416;2023-07-20T02:51:48;93352.72;;;19.52;81.64
33151;BME280;19508;42.578;23.416;2023-07-20T02:54:14;93360.78;;;19.57;81.37
33151;BME280;19508;42.578;23.416;2023-07-20T02:56:40;93359.34;;;19.59;80.92
33151;BME280;19508;42.578;23.416;2023-07-20T02:59:05;93353.50;;;19.35;81.80
33151;BME280;19508;42.578;23.416;2023-07-20T03:01:31;93350.13;;;19.29;82.11
33151;BME280;19508;42.578;23.416;2023-07-20T03:03:56;93358.66;;;19.36;81.97
33151;BME280;19508;42.578;23.416;2023-07-20T03:06:21;93356.41;;;19.47;81.78
33151;BME280;19508;42.578;23.416;2023-07-20T03:08:47;93355.00;;;19.50;81.08
33151;BME280;19508;42.578;23.416;2023-07-20T03:11:18;93351.94;;;19.42;81.47
33151;BME280;19508;42.578;23.416;2023-07-20T03:13:44;93355.78;;;19.41;81.34
33151;BME280;19508;42.578;23.416;2023-07-20T03:16:18;93352.06;;;19.37;81.95
33151;BME280;19508;42.578;23.416;2023-07-20T03:18:45;93355.13;;;19.36;81.84
33151;BME280;19508;42.578;23.416;2023-07-20T03:21:11;93358.31;;;19.38;82.13
33151;BME280;19508;42.578;23.416;2023-07-20T03:23:38;93362.50;;;19.35;81.99
33151;BME280;19508;42.578;23.416;2023-07-20T03:26:04;93359.44;;;19.37;81.86
33151;BME280;19508;42.578;23.416;2023-07-20T03:28:29;93362.38;;;19.40;81.68
33151;BME280;19508;42.578;23.416;2023-07-20T03:30:56;93369.09;;;19.34;82.12
33151;BME280;19508;42.578;23.416;2023-07-20T03:33:26;93371.38;;;19.50;81.72
33151;BME280;19508;42.578;23.416;2023-07-20T03:35:53;93380.16;;;19.38;82.08
33151;BME280;19508;42.578;23.416;2023-07-20T03:38:19;93372.50;;;19.40;81.73
33151;BME280;19508;42.578;23.416;2023-07-20T03:40:56;93369.13;;;19.52;81.34
33151;BME280;19508;42.578;23.416;2023-07-20T03:43:23;93380.03;;;19.52;81.88
33151;BME280;19508;42.578;23.416;2023-07-20T03:45:49;93381.63;;;19.53;81.92
33151;BME280;19508;42.578;23.416;2023-07-20T03:48:17;93375.38;;;19.52;81.38
33151;BME280;19508;42.578;23.416;2023-07-20T03:50:44;93378.16;;;19.61;81.58
33151;BME280;19508;42.578;23.416;2023-07-20T03:53:11;93382.34;;;19.67;81.06
33151;BME280;19508;42.578;23.416;2023-07-20T03:55:36;93381.53;;;19.66;81.44
33151;BME280;19508;42.578;23.416;2023-07-20T03:58:02;93378.63;;;19.71;81.18
33151;BME280;19508;42.578;23.416;2023-07-20T04:00:27;93393.41;;;19.79;81.63
33151;BME280;19508;42.578;23.416;2023-07-20T04:02:53;93386.34;;;19.69;81.81
33151;BME280;19508;42.578;23.416;2023-07-20T04:05:18;93404.81;;;19.81;81.80
33151;BME280;19508;42.578;23.416;2023-07-20T04:07:44;93401.63;;;19.96;80.48
33151;BME280;19508;42.578;23.416;2023-07-20T04:10:09;93409.00;;;20.05;80.15
33151;BME280;19508;42.578;23.416;2023-07-20T04:12:35;93399.03;;;20.17;80.11
33151;BME280;19508;42.578;23.416;2023-07-20T04:15:01;93400.63;;;20.27;79.96
33151;BME280;19508;42.578;23.416;2023-07-20T04:17:26;93383.88;;;20.37;79.58
33151;BME280;19508;42.578;23.416;2023-07-20T04:19:51;93384.38;;;20.48;79.40
33151;BME280;19508;42.578;23.416;2023-07-20T04:22:17;93387.38;;;20.64;79.21
33151;BME280;19508;42.578;23.416;2023-07-20T04:24:42;93376.72;;;20.79;79.05
33151;BME280;19508;42.578;23.416;2023-07-20T04:27:08;93374.13;;;20.83;77.95
33151;BME280;19508;42.578;23.416;2023-07-20T04:29:33;93375.06;;;20.96;78.11
33151;BME280;19508;42.578;23.416;2023-07-20T04:31:59;93374.16;;;21.12;77.50
33151;BME280;19508;42.578;23.416;2023-07-20T04:34:24;93367.56;;;21.13;75.88
33151;BME280;19508;42.578;23.416;2023-07-20T04:36:50;93361.56;;;21.20;76.15
33151;BME280;19508;42.578;23.416;2023-07-20T04:39:15;93362.75;;;21.40;75.41
33151;BME280;19508;42.578;23.416;2023-07-20T04:41:40;93360.31;;;21.47;74.94
33151;BME280;19508;42.578;23.416;2023-07-20T04:44:06;93364.81;;;21.73;73.67
33151;BME280;19508;42.578;23.416;2023-07-20T04:46:31;93365.84;;;22.01;73.09
33151;BME280;19508;42.578;23.416;2023-07-20T04:48:56;93356.25;;;22.16;72.65
33151;BME280;19508;42.578;23.416;2023-07-20T04:51:22;93356.28;;;22.28;71.65
33151;BME280;19508;42.578;23.416;2023-07-20T04:53:48;93361.59;;;22.45;71.17
33151;BME280;19508;42.578;23.416;2023-07-20T04:56:13;93357.06;;;22.62;70.94
33151;BME280;19508;42.578;23.416;2023-07-20T04:58:39;93358.59;;;22.84;69.94
33151;BME280;19508;42.578;23.416;2023-07-20T05:01:04;93365.06;;;23.00;70.02
33151;BME280;19508;42.578;23.416;2023-07-20T05:03:30;93357.84;;;23.07;68.99
33151;BME280;19508;42.578;23.416;2023-07-20T05:06:03;93350.84;;;23.22;68.76
33151;BME280;19508;42.578;23.416;2023-07-20T05:08:29;93352.75;;;23.58;67.24
33151;BME280;19508;42.578;23.416;2023-07-20T05:10:54;93349.34;;;24.14;65.95
33151;BME280;19508;42.578;23.416;2023-07-20T05:13:20;93355.69;;;24.58;64.55
33151;BME280;19508;42.578;23.416;2023-07-20T05:15:45;93350.41;;;24.65;62.06
33151;BME280;19508;42.578;23.416;2023-07-20T05:18:11;93356.56;;;25.38;59.13
33151;BME280;19508;42.578;23.416;2023-07-20T05:20:36;93353.16;;;25.76;58.00
33151;BME280;19508;42.578;23.416;2023-07-20T05:23:02;93356.84;;;26.38;55.64
33151;BME280;19508;42.578;23.416;2023-07-20T05:25:28;93353.50;;;26.67;54.38
33151;BME280;19508;42.578;23.416;2023-07-20T05:27:53;93335.81;;;27.14;52.39
33151;BME280;19508;42.578;23.416;2023-07-20T05:30:20;93343.47;;;27.24;51.13
33151;BME280;19508;42.578;23.416;2023-07-20T05:32:47;93339.53;;;27.48;50.03
33151;BME280;19508;42.578;23.416;2023-07-20T05:35:17;93343.59;;;27.32;49.47
33151;BME280;19508;42.578;23.416;2023-07-20T05:37:43;93342.50;;;27.63;48.06
33151;BME280;19508;42.578;23.416;2023-07-20T05:40:08;93339.44;;;27.68;48.66
33151;BME280;19508;42.578;23.416;2023-07-20T05:42:37;93351.22;;;27.88;48.17
33151;BME280;19508;42.578;23.416;2023-07-20T05:45:02;93347.34;;;28.26;48.23
33151;BME280;19508;42.578;23.416;2023-07-20T05:47:27;93362.28;;;28.18;50.54
33151;BME280;19508;42.578;23.416;2023-07-20T05:49:54;93364.28;;;27.91;50.71
33151;BME280;19508;42.578;23.416;2023-07-20T05:52:19;93363.44;;;27.87;51.80
33151;BME280;19508;42.578;23.416;2023-07-20T05:54:45;93370.84;;;28.09;51.12
33151;BME280;19508;42.578;23.416;2023-07-20T05:57:10;93369.41;;;27.66;51.70
33151;BME280;19508;42.578;23.416;2023-07-20T05:59:36;93370.88;;;27.82;51.59
33151;BME280;19508;42.578;23.416;2023-07-20T06:02:03;93374.59;;;27.94;51.78
33151;BME280;19508;42.578;23.416;2023-07-20T06:04:29;93370.13;;;27.86;50.68
33151;BME280;19508;42.578;23.416;2023-07-20T06:06:56;93366.59;;;28.15;51.14
33151;BME280;19508;42.578;23.416;2023-07-20T06:09:21;93362.66;;;28.16;50.83
33151;BME280;19508;42.578;23.416;2023-07-20T06:11:46;93359.97;;;28.23;52.07
33151;BME280;19508;42.578;23.416;2023-07-20T06:14:12;93365.06;;;28.48;52.77
33151;BME280;19508;42.578;23.416;2023-07-20T06:16:38;93361.31;;;29.00;48.73
33151;BME280;19508;42.578;23.416;2023-07-20T06:19:03;93362.75;;;29.24;48.81
33151;BME280;19508;42.578;23.416;2023-07-20T06:21:28;93351.91;;;29.49;48.12
33151;BME280;19508;42.578;23.416;2023-07-20T06:23:54;93354.50;;;29.79;46.03
33151;BME280;19508;42.578;23.416;2023-07-20T06:26:19;93340.00;;;29.48;45.05
33151;BME280;19508;42.578;23.416;2023-07-20T06:28:46;93346.81;;;30.13;46.65
33151;BME280;19508;42.578;23.416;2023-07-20T06:31:11;93350.09;;;30.37;44.63
33151;BME280;19508;42.578;23.416;2023-07-20T06:33:36;93343.94;;;30.79;43.60
33151;BME280;19508;42.578;23.416;2023-07-20T06:36:02;93331.75;;;31.30;43.85
33151;BME280;19508;42.578;23.416;2023-07-20T06:38:28;93322.59;;;31.61;41.00
33151;BME280;19508;42.578;23.416;2023-07-20T06:40:54;93338.53;;;31.29;42.23
33151;BME280;19508;42.578;23.416;2023-07-20T06:43:20;93337.69;;;31.25;41.89
33151;BME280;19508;42.578;23.416;2023-07-20T06:45:51;93340.09;;;31.40;41.32
33151;BME280;19508;42.578;23.416;2023-07-20T06:48:17;93337.72;;;31.46;42.06
33151;BME280;19508;42.578;23.416;2023-07-20T06:50:43;93330.56;;;31.77;41.83
33151;BME280;19508;42.578;23.416;2023-07-20T06:53:08;93335.34;;;31.84;41.63
33151;BME280;19508;42.578;23.416;2023-07-20T06:55:33;93340.00;;;32.29;41.33
33151;BME280;19508;42.578;23.416;2023-07-20T06:57:59;93344.66;;;33.49;37.86
33151;BME280;19508;42.578;23.416;2023-07-20T07:00:24;93339.22;;;33.79;36.07
33151;BME280;19508;42.578;23.416;2023-07-20T07:02:49;93339.22;;;33.79;35.83
33151;BME280;19508;42.578;23.416;2023-07-20T07:05:15;93335.69;;;34.20;34.61
33151;BME280;19508;42.578;23.416;2023-07-20T07:07:41;93343.28;;;33.71;34.98
33151;BME280;19508;42.578;23.416;2023-07-20T07:10:07;93354.13;;;34.10;34.96
33151;BME280;19508;42.578;23.416;2023-07-20T07:12:33;93359.53;;;34.28;35.38
33151;BME280;19508;42.578;23.416;2023-07-20T07:14:59;93363.53;;;34.27;36.31
33151;BME280;19508;42.578;23.416;2023-07-20T07:17:25;93366.66;;;33.91;34.71
33151;BME280;19508;42.578;23.416;2023-07-20T07:19:52;93383.22;;;32.95;36.29
33151;BME280;19508;42.578;23.416;2023-07-20T07:22:20;93390.59;;;31.85;39.12
33151;BME280;19508;42.578;23.416;2023-07-20T07:24:46;93399.69;;;31.29;38.33
33151;BME280;19508;42.578;23.416;2023-07-20T07:27:11;93409.06;;;30.78;40.47
33151;BME280;19508;42.578;23.416;2023-07-20T07:29:37;93417.19;;;29.91;42.35
33151;BME280;19508;42.578;23.416;2023-07-20T07:32:03;93408.94;;;30.60;42.71
33151;BME280;19508;42.578;23.416;2023-07-20T07:34:28;93428.00;;;30.61;41.55
33151;BME280;19508;42.578;23.416;2023-07-20T07:36:54;93429.00;;;31.08;41.91
33151;BME280;19508;42.578;23.416;2023-07-20T07:39:19;93428.72;;;31.49;40.11
33151;BME280;19508;42.578;23.416;2023-07-20T07:41:45;93422.78;;;31.68;40.31
33151;BME280;19508;42.578;23.416;2023-07-20T07:44:10;93418.81;;;31.62;41.12
33151;BME280;19508;42.578;23.416;2023-07-20T07:46:35;93408.44;;;31.38;41.41
33151;BME280;19508;42.578;23.416;2023-07-20T07:49:01;93407.91;;;30.86;42.67
33151;BME280;19508;42.578;23.416;2023-07-20T07:51:26;93397.75;;;31.47;42.35
33151;BME280;19508;42.578;23.416;2023-07-20T07:53:54;93404.09;;;31.62;40.57
33151;BME280;19508;42.578;23.416;2023-07-20T07:56:20;93396.16;;;31.96;40.72
33151;BME280;19508;42.578;23.416;2023-07-20T07:58:49;93387.44;;;31.76;39.93
33151;BME280;19508;42.578;23.416;2023-07-20T08:01:16;93373.50;;;31.65;41.21
33151;BME280;19508;42.578;23.416;2023-07-20T08:03:41;93371.09;;;31.67;41.08
33151;BME280;19508;42.578;23.416;2023-07-20T08:06:07;93372.69;;;31.47;41.76
33151;BME280;19508;42.578;23.416;2023-07-20T08:08:32;93367.16;;;31.97;41.73
33151;BME280;19508;42.578;23.416;2023-07-20T08:10:58;93365.13;;;31.44;41.15
33151;BME280;19508;42.578;23.416;2023-07-20T08:13:23;93349.22;;;32.09;39.05
33151;BME280;19508;42.578;23.416;2023-07-20T08:15:51;93357.56;;;32.34;40.82
33151;BME280;19508;42.578;23.416;2023-07-20T08:18:19;93374.66;;;32.39;39.08
33151;BME280;19508;42.578;23.416;2023-07-20T08:20:45;93386.97;;;32.20;40.82
33151;BME280;19508;42.578;23.416;2023-07-20T08:23:10;93395.75;;;32.12;39.33
33151;BME280;19508;42.578;23.416;2023-07-20T08:25:36;93395.31;;;32.27;38.76
33151;BME280;19508;42.578;23.416;2023-07-20T08:28:04;93398.94;;;32.35;40.24
33151;BME280;19508;42.578;23.416;2023-07-20T08:30:42;93393.34;;;32.28;40.52
33151;BME280;19508;42.578;23.416;2023-07-20T08:33:09;93396.47;;;32.55;39.67
33151;BME280;19508;42.578;23.416;2023-07-20T08:35:35;93405.63;;;32.55;39.95
33151;BME280;19508;42.578;23.416;2023-07-20T08:38:12;93386.94;;;32.52;39.64
33151;BME280;19508;42.578;23.416;2023-07-20T08:40:40;93380.50;;;32.70;40.76
33151;BME280;19508;42.578;23.416;2023-07-20T08:43:06;93382.94;;;32.53;40.29
33151;BME280;19508;42.578;23.416;2023-07-20T08:45:36;93372.97;;;32.67;41.25
33151;BME280;19508;42.578;23.416;2023-07-20T08:48:05;93388.84;;;32.84;39.97
33151;BME280;19508;42.578;23.416;2023-07-20T08:50:32;93394.13;;;32.46;40.15
33151;BME280;19508;42.578;23.416;2023-07-20T08:52:58;93402.91;;;32.16;40.52
33151;BME280;19508;42.578;23.416;2023-07-20T08:55:26;93414.50;;;31.79;41.61
33151;BME280;19508;42.578;23.416;2023-07-20T08:57:57;93415.22;;;31.51;39.23
33151;BME280;19508;42.578;23.416;2023-07-20T09:00:24;93417.19;;;31.40;40.06
33151;BME280;19508;42.578;23.416;2023-07-20T09:02:50;93416.41;;;31.47;40.54
33151;BME280;19508;42.578;23.416;2023-07-20T09:05:17;93414.81;;;31.46;41.46
33151;BME280;19508;42.578;23.416;2023-07-20T09:07:43;93411.63;;;31.51;39.69
33151;BME280;19508;42.578;23.416;2023-07-20T09:10:08;93405.28;;;31.57;40.17
33151;BME280;19508;42.578;23.416;2023-07-20T09:12:35;93401.31;;;31.58;39.54
33151;BME280;19508;42.578;23.416;2023-07-20T09:15:01;93393.41;;;31.89;40.06
33151;BME280;19508;42.578;23.416;2023-07-20T09:17:26;93398.16;;;31.92;38.00
33151;BME280;19508;42.578;23.416;2023-07-20T09:19:52;93405.31;;;31.86;37.80
33151;BME280;19508;42.578;23.416;2023-07-20T09:22:17;93405.69;;;31.66;38.95
33151;BME280;19508;42.578;23.416;2023-07-20T09:24:43;93407.28;;;31.57;38.09
33151;BME280;19508;42.578;23.416;2023-07-20T09:27:09;93397.75;;;31.54;37.84
33151;BME280;19508;42.578;23.416;2023-07-20T09:29:50;93389.78;;;31.53;37.79
33151;BME280;19508;42.578;23.416;2023-07-20T09:32:18;93391.72;;;31.24;39.38
33151;BME280;19508;42.578;23.416;2023-07-20T09:34:46;93382.25;;;31.46;38.17
33151;BME280;19508;42.578;23.416;2023-07-20T09:37:11;93391.78;;;31.45;39.79
33151;BME280;19508;42.578;23.416;2023-07-20T09:39:46;93382.28;;;31.82;38.73
33151;BME280;19508;42.578;23.416;2023-07-20T09:42:12;93394.16;;;31.50;39.15
33151;BME280;19508;42.578;23.416;2023-07-20T09:44:43;93386.16;;;31.27;38.07
33151;BME280;19508;42.578;23.416;2023-07-20T09:47:09;93395.78;;;31.80;37.81
33151;BME280;19508;42.578;23.416;2023-07-20T09:49:41;93372.66;;;32.18;37.83
33151;BME280;19508;42.578;23.416;2023-07-20T09:52:08;93371.84;;;32.28;37.20
33151;BME280;19508;42.578;23.416;2023-07-20T09:54:37;93369.03;;;32.57;37.37
33151;BME280;19508;42.578;23.416;2023-07-20T09:57:02;93371.72;;;32.78;37.54
33151;BME280;19508;42.578;23.416;2023-07-20T09:59:28;93377.09;;;33.21;34.58
33151;BME280;19508;42.578;23.416;2023-07-20T10:01:58;93366.88;;;32.97;37.18
33151;BME280;19508;42.578;23.416;2023-07-20T10:04:25;93353.34;;;32.99;35.53
33151;BME280;19508;42.578;23.416;2023-07-20T10:06:54;93334.00;;;33.29;34.69
33151;BME280;19508;42.578;23.416;2023-07-20T10:09:22;93343.00;;;32.89;36.20
33151;BME280;19508;42.578;23.416;2023-07-20T10:11:53;93343.47;;;32.69;34.68
33151;BME280;19508;42.578;23.416;2023-07-20T10:14:20;93342.66;;;32.72;36.06
33151;BME280;19508;42.578;23.416;2023-07-20T10:16:55;93339.63;;;32.27;35.34
33151;BME280;19508;42.578;23.416;2023-07-20T10:19:43;93346.47;;;31.98;35.96
33151;BME280;19508;42.578;23.416;2023-07-20T10:22:19;93356.00;;;31.47;36.97
33151;BME280;19508;42.578;23.416;2023-07-20T10:24:46;93354.81;;;31.41;39.31
33151;BME280;19508;42.578;23.416;2023-07-20T10:27:13;93353.22;;;31.72;38.74
33151;BME280;19508;42.578;23.416;2023-07-20T10:29:40;93356.44;;;31.81;37.60
33151;BME280;19508;42.578;23.416;2023-07-20T10:32:07;93353.63;;;31.99;37.88
33151;BME280;19508;42.578;23.416;2023-07-20T10:34:33;93359.19;;;31.95;35.96
33151;BME280;19508;42.578;23.416;2023-07-20T10:36:59;93375.50;;;31.83;37.50
33151;BME280;19508;42.578;23.416;2023-07-20T10:39:25;93368.34;;;31.85;36.34
33151;BME280;19508;42.578;23.416;2023-07-20T10:42:12;93364.75;;;32.13;38.35
33151;BME280;19508;42.578;23.416;2023-07-20T10:44:39;93348.84;;;31.75;36.09
33151;BME280;19508;42.578;23.416;2023-07-20T10:47:09;93339.63;;;32.27;35.11
33151;BME280;19508;42.578;23.416;2023-07-20T10:49:58;93342.72;;;32.62;34.72
33151;BME280;19508;42.578;23.416;2023-07-20T10:52:39;93339.03;;;32.93;34.64
33151;BME280;19508;42.578;23.416;2023-07-20T10:55:18;93338.66;;;32.77;35.23
33151;BME280;19508;42.578;23.416;2023-07-20T10:58:11;93309.06;;;32.13;35.66
33151;BME280;19508;42.578;23.416;2023-07-20T11:00:37;93289.94;;;32.22;35.47
33151;BME280;19508;42.578;23.416;2023-07-20T11:03:03;93285.19;;;32.02;36.03
33151;BME280;19508;42.578;23.416;2023-07-20T11:05:39;93298.72;;;31.96;36.44
33151;BME280;19508;42.578;23.416;2023-07-20T11:08:10;93319.44;;;31.56;36.88
33151;BME280;19508;42.578;23.416;2023-07-20T11:10:35;93317.03;;;31.61;37.82
33151;BME280;19508;42.578;23.416;2023-07-20T11:13:23;93274.16;;;31.23;37.96
33151;BME280;19508;42.578;23.416;2023-07-20T11:18:25;93264.16;;;30.90;45.59
33151;BME280;19508;42.578;23.416;2023-07-20T11:20:51;93274.91;;;31.16;43.74
33151;BME280;19508;42.578;23.416;2023-07-20T11:23:17;93288.84;;;31.45;42.81
33151;BME280;19508;42.578;23.416;2023-07-20T11:25:42;93283.66;;;31.58;40.77
33151;BME280;19508;42.578;23.416;2023-07-20T11:28:09;93275.66;;;32.06;40.03
33151;BME280;19508;42.578;23.416;2023-07-20T11:30:37;93275.53;;;32.42;36.74
33151;BME280;19508;42.578;23.416;2023-07-20T11:33:03;93279.31;;;32.83;36.54
33151;BME280;19508;42.578;23.416;2023-07-20T11:35:29;93268.16;;;32.87;35.20
33151;BME280;19508;42.578;23.416;2023-07-20T11:37:55;93270.72;;;33.19;36.03
33151;BME280;19508;42.578;23.416;2023-07-20T11:40:22;93270.19;;;33.38;36.80
33151;BME280;19508;42.578;23.416;2023-07-20T11:42:47;93259.94;;;33.25;37.83
33151;BME280;19508;42.578;23.416;2023-07-20T11:45:16;93255.53;;;33.72;35.51
33151;BME280;19508;42.578;23.416;2023-07-20T11:47:43;93257.84;;;33.39;38.48
33151;BME280;19508;42.578;23.416;2023-07-20T11:50:09;93241.72;;;34.03;38.99
33151;BME280;19508;42.578;23.416;2023-07-20T11:52:34;93241.22;;;34.45;34.45
33151;BME280;19508;42.578;23.416;2023-07-20T11:55:00;93223.84;;;34.88;34.16
33151;BME280;19508;42.578;23.416;2023-07-20T11:57:26;93235.84;;;34.85;33.88
33151;BME280;19508;42.578;23.416;2023-07-20T12:00:00;93229.72;;;34.67;34.53
33151;BME280;19508;42.578;23.416;2023-07-20T12:02:27;93234.00;;;35.05;33.44
33151;BME280;19508;42.578;23.416;2023-07-20T12:04:54;93226.84;;;34.74;36.70
33151;BME280;19508;42.578;23.416;2023-07-20T12:07:19;93215.75;;;34.67;36.66
33151;BME280;19508;42.578;23.416;2023-07-20T12:10:11;93212.63;;;34.92;33.48
33151;BME280;19508;42.578;23.416;2023-07-20T12:12:41;93216.28;;;35.12;33.68
33151;BME280;19508;42.578;23.416;2023-07-20T12:17:45;93216.25;;;35.16;34.83
33151;BME280;19508;42.578;23.416;2023-07-20T12:20:12;93211.94;;;35.34;33.81
33151;BME280;19508;42.578;23.416;2023-07-20T12:22:39;93199.25;;;35.30;34.72
33151;BME280;19508;42.578;23.416;2023-07-20T12:25:08;93205.66;;;35.27;32.54
33151;BME280;19508;42.578;23.416;2023-07-20T12:27:37;93196.59;;;35.19;32.87
33151;BME280;19508;42.578;23.416;2023-07-20T12:30:05;93193.88;;;35.16;31.77
33151;BME280;19508;42.578;23.416;2023-07-20T12:32:30;93192.03;;;35.29;31.69
33151;BME280;19508;42.578;23.416;2023-07-20T12:34:56;93184.91;;;34.74;31.37
33151;BME280;19508;42.578;23.416;2023-07-20T12:37:21;93177.53;;;34.87;33.80
33151;BME280;19508;42.578;23.416;2023-07-20T12:39:47;93178.97;;;34.72;30.32
33151;BME280;19508;42.578;23.416;2023-07-20T12:42:13;93181.13;;;35.38;30.11
33151;BME280;19508;42.578;23.416;2023-07-20T12:44:40;93175.59;;;35.78;29.21
33151;BME280;19508;42.578;23.416;2023-07-20T12:47:06;93180.03;;;36.19;26.53
33151;BME280;19508;42.578;23.416;2023-07-20T12:49:31;93173.28;;;36.92;25.35
33151;BME280;19508;42.578;23.416;2023-07-20T12:51:57;93166.84;;;36.55;25.55
33151;BME280;19508;42.578;23.416;2023-07-20T12:54:22;93161.22;;;36.19;26.98
33151;BME280;19508;42.578;23.416;2023-07-20T12:56:47;93162.44;;;36.38;24.96
33151;BME280;19508;42.578;23.416;2023-07-20T12:59:13;93169.25;;;37.42;24.92
33151;BME280;19508;42.578;23.416;2023-07-20T13:01:38;93166.09;;;38.43;23.83
33151;BME280;19508;42.578;23.416;2023-07-20T13:04:06;93161.44;;;39.29;24.32
33151;BME280;19508;42.578;23.416;2023-07-20T13:06:34;93161.53;;;38.20;24.13
33151;BME280;19508;42.578;23.416;2023-07-20T13:09:00;93164.38;;;38.87;23.39